Time;durP1;ratioP1;P1;durP2;ratioP2;P2;SDS_P1;SDS_P2;PMS_P1;PMS_P2;Temp;Humidity;BMP_temperature;BMP_pressure;BME280_temperature;BME280_humidity;BME280_pressure;Samples;Min_cycle;Max_cycle;Signal;HPM_P1;HPM_P2
2021/10/22 00:01:46;;;;;;;7.25;1.52;;;7.70;99.90;;;;;;5027579;28;20759;-74
2021/10/22 00:04:13;;;;;;;4.95;2.05;;;7.70;99.90;;;;;;5031072;28;20208;-75
2021/10/22 00:06:41;;;;;;;2.40;1.35;;;7.70;99.90;;;;;;5027544;28;20610;-74
2021/10/22 00:09:08;;;;;;;11.20;1.67;;;7.70;99.90;;;;;;5033017;28;20642;-76
2021/10/22 00:11:37;;;;;;;3.67;1.50;;;7.70;99.90;;;;;;5025068;28;20215;-78
2021/10/22 00:14:04;;;;;;;4.43;1.60;;;7.70;99.90;;;;;;5029142;28;20216;-76
2021/10/22 00:16:31;;;;;;;6.70;1.55;;;7.70;99.90;;;;;;5031573;28;20195;-77
2021/10/22 00:18:58;;;;;;;5.85;1.42;;;7.80;99.90;;;;;;5027880;28;20209;-74
2021/10/22 00:21:25;;;;;;;5.47;1.15;;;7.70;99.90;;;;;;5029284;28;20250;-76
2021/10/22 00:23:54;;;;;;;7.38;1.70;;;7.80;99.90;;;;;;5033536;28;20215;-76
2021/10/22 00:26:21;;;;;;;8.27;1.92;;;7.70;99.90;;;;;;5027791;28;20574;-77
2021/10/22 00:28:48;;;;;;;5.07;1.77;;;7.70;99.90;;;;;;5032458;28;20211;-73
2021/10/22 00:31:16;;;;;;;1.98;1.10;;;7.70;99.90;;;;;;5027757;28;20220;-73
2021/10/22 00:33:43;;;;;;;5.88;2.03;;;7.60;99.90;;;;;;5030755;28;20231;-75
2021/10/22 00:36:11;;;;;;;4.50;1.33;;;7.60;99.90;;;;;;5027425;28;20199;-74
2021/10/22 00:38:39;;;;;;;8.68;1.90;;;7.60;99.90;;;;;;5028202;28;20282;-74
2021/10/22 00:41:07;;;;;;;5.47;2.40;;;7.50;99.90;;;;;;5027881;28;20211;-76
2021/10/22 00:43:35;;;;;;;15.32;3.05;;;7.50;99.90;;;;;;5027570;28;20220;-77
2021/10/22 00:46:02;;;;;;;3.58;1.88;;;7.50;99.90;;;;;;5026364;28;20215;-73
2021/10/22 00:48:29;;;;;;;6.00;1.52;;;7.50;99.90;;;;;;5033929;28;20223;-74
2021/10/22 00:51:00;;;;;;;4.75;1.27;;;7.60;99.90;;;;;;5029970;28;20210;-75
2021/10/22 00:53:28;;;;;;;7.15;1.95;;;7.70;99.90;;;;;;5026981;28;20315;-77
2021/10/22 00:55:56;;;;;;;6.43;2.20;;;7.80;99.90;;;;;;5031068;28;20203;-76
2021/10/22 00:58:25;;;;;;;4.20;1.85;;;7.80;99.90;;;;;;5034243;28;20210;-75
2021/10/22 01:00:52;;;;;;;19.83;1.85;;;7.90;99.90;;;;;;5030599;28;20214;-73
2021/10/22 01:03:19;;;;;;;7.78;1.58;;;7.90;99.90;;;;;;5038299;28;20227;-73
2021/10/22 01:05:47;;;;;;;8.05;3.00;;;7.90;99.90;;;;;;5034705;28;20210;-73
2021/10/22 01:08:15;;;;;;;8.70;1.45;;;7.90;99.90;;;;;;5030281;28;20309;-73
2021/10/22 01:10:42;;;;;;;8.50;1.55;;;7.90;99.90;;;;;;5031445;28;20250;-75
2021/10/22 01:13:09;;;;;;;7.60;1.63;;;7.90;99.90;;;;;;5017461;28;20227;-75
2021/10/22 01:15:38;;;;;;;9.20;2.13;;;7.90;99.90;;;;;;5032788;28;20216;-75
2021/10/22 01:18:05;;;;;;;5.47;1.80;;;7.90;99.90;;;;;;5032748;28;20211;-74
2021/10/22 01:20:32;;;;;;;9.45;3.70;;;7.90;99.90;;;;;;5032832;28;20228;-74
2021/10/22 01:23:01;;;;;;;11.38;2.20;;;7.90;99.90;;;;;;5033133;28;20234;-74
2021/10/22 01:25:29;;;;;;;3.70;1.38;;;8.00;99.90;;;;;;5021304;28;20211;-76
2021/10/22 01:27:57;;;;;;;6.68;1.80;;;7.90;99.90;;;;;;5022637;28;20243;-74
2021/10/22 01:30:31;;;;;;;4.40;1.73;;;8.00;99.90;;;;;;5025454;28;20211;-77
2021/10/22 01:33:03;;;;;;;9.27;1.77;;;8.00;99.90;;;;;;5032260;28;20293;-75
2021/10/22 01:35:30;;;;;;;4.78;1.50;;;8.00;99.90;;;;;;5027511;28;20207;-76
2021/10/22 01:38:02;;;;;;;3.88;1.80;;;8.00;99.90;;;;;;5035355;28;20206;-76
2021/10/22 01:40:30;;;;;;;9.32;1.92;;;8.00;99.90;;;;;;5035462;28;20207;-74
2021/10/22 01:42:57;;;;;;;3.85;1.42;;;8.00;99.90;;;;;;5032464;28;20231;-76
2021/10/22 01:45:24;;;;;;;2.75;1.52;;;8.00;99.90;;;;;;5019267;28;20299;-76
2021/10/22 01:47:51;;;;;;;9.93;2.10;;;8.00;99.90;;;;;;5032392;28;20230;-78
2021/10/22 01:50:18;;;;;;;7.80;2.17;;;8.00;99.90;;;;;;5027270;28;20196;-74
2021/10/22 01:52:47;;;;;;;5.78;1.55;;;8.10;99.90;;;;;;5033068;28;20570;-77
2021/10/22 01:55:15;;;;;;;11.73;2.25;;;8.00;99.90;;;;;;5022147;28;20728;-74
2021/10/22 01:57:42;;;;;;;3.15;1.33;;;8.00;99.90;;;;;;5029502;28;20199;-75
2021/10/22 02:00:11;;;;;;;8.70;2.35;;;8.00;99.90;;;;;;5024699;28;20203;-74
2021/10/22 02:02:39;;;;;;;5.95;1.70;;;8.00;99.90;;;;;;5026856;28;20242;-77
2021/10/22 02:05:06;;;;;;;9.48;1.90;;;8.00;99.90;;;;;;5022681;28;20230;-76
2021/10/22 02:07:34;;;;;;;7.00;1.60;;;8.00;99.90;;;;;;5029323;28;20215;-76
2021/10/22 02:10:01;;;;;;;3.97;1.55;;;8.10;99.90;;;;;;5029420;28;20285;-76
2021/10/22 02:12:30;;;;;;;10.05;2.53;;;8.10;99.90;;;;;;5026280;28;20665;-74
2021/10/22 02:14:57;;;;;;;12.73;1.80;;;8.10;99.90;;;;;;5023960;28;20208;-74
2021/10/22 02:17:24;;;;;;;10.68;1.80;;;8.10;99.90;;;;;;5027203;28;20203;-74
2021/10/22 02:19:51;;;;;;;10.20;1.85;;;8.20;99.90;;;;;;5030009;28;20207;-77
2021/10/22 02:22:19;;;;;;;15.48;1.83;;;8.20;99.90;;;;;;5031619;28;20237;-74
2021/10/22 02:24:46;;;;;;;8.63;3.50;;;8.20;99.90;;;;;;5025219;28;20209;-76
2021/10/22 02:27:13;;;;;;;7.68;1.73;;;8.20;99.90;;;;;;5022579;28;20211;-75
2021/10/22 02:29:42;;;;;;;7.38;2.17;;;8.20;99.90;;;;;;5017758;28;20227;-75
2021/10/22 02:32:09;;;;;;;6.45;1.65;;;8.20;99.90;;;;;;5027761;28;20233;-74
2021/10/22 02:34:36;;;;;;;3.42;1.55;;;8.20;99.90;;;;;;5026614;28;20678;-74
2021/10/22 02:37:05;;;;;;;3.28;1.63;;;8.20;99.90;;;;;;5018518;28;20725;-76
2021/10/22 02:39:33;;;;;;;4.97;1.95;;;8.10;99.90;;;;;;5018785;28;20208;-74
2021/10/22 02:42:00;;;;;;;4.97;2.30;;;8.10;99.90;;;;;;5028007;28;20253;-74
2021/10/22 02:44:28;;;;;;;6.18;1.90;;;8.10;99.90;;;;;;5027299;28;20603;-74
2021/10/22 02:46:57;;;;;;;4.13;1.73;;;8.10;99.90;;;;;;5015050;28;20224;-74
2021/10/22 02:49:24;;;;;;;7.43;2.03;;;8.10;99.90;;;;;;5029125;28;20250;-77
2021/10/22 02:51:52;;;;;;;3.03;1.10;;;8.00;99.90;;;;;;5030367;28;20338;-77
2021/10/22 02:54:19;;;;;;;8.13;1.50;;;7.90;99.90;;;;;;5037861;28;20214;-74
2021/10/22 02:56:47;;;;;;;7.35;2.65;;;7.90;99.90;;;;;;5025275;28;20212;-75
2021/10/22 02:59:21;;;;;;;8.07;1.85;;;7.90;99.90;;;;;;5024792;28;20661;-76
2021/10/22 03:01:48;;;;;;;3.58;1.50;;;7.80;99.90;;;;;;5023717;28;20739;-73
2021/10/22 03:04:17;;;;;;;3.70;1.83;;;7.80;99.90;;;;;;5030187;28;20198;-75
2021/10/22 03:06:45;;;;;;;6.70;2.53;;;7.80;99.90;;;;;;5023957;28;20202;-75
2021/10/22 03:09:12;;;;;;;4.70;1.60;;;7.80;99.90;;;;;;5026941;28;20199;-76
2021/10/22 03:11:39;;;;;;;17.20;2.60;;;7.80;99.90;;;;;;5024017;28;20697;-77
2021/10/22 03:14:07;;;;;;;8.68;2.10;;;7.70;99.90;;;;;;5026021;28;20581;-76
2021/10/22 03:16:34;;;;;;;9.35;2.53;;;7.70;99.90;;;;;;5025706;28;20224;-75
2021/10/22 03:19:01;;;;;;;10.10;1.90;;;7.70;99.90;;;;;;5030681;28;20687;-74
2021/10/22 03:21:30;;;;;;;6.95;1.85;;;7.60;99.90;;;;;;5028602;28;20587;-74
2021/10/22 03:23:57;;;;;;;16.85;2.90;;;7.60;99.90;;;;;;5033360;28;20206;-76
2021/10/22 03:26:26;;;;;;;5.18;2.25;;;7.60;99.90;;;;;;5025861;28;20222;-77
2021/10/22 03:28:53;;;;;;;8.25;1.90;;;7.60;99.90;;;;;;5024862;28;20322;-75
2021/10/22 03:31:20;;;;;;;11.27;2.05;;;7.60;99.90;;;;;;5026168;28;20209;-75
2021/10/22 03:33:47;;;;;;;6.60;2.63;;;7.60;99.90;;;;;;5024033;28;20284;-74
2021/10/22 03:36:15;;;;;;;7.38;2.40;;;7.60;99.90;;;;;;5031425;28;20579;-78
2021/10/22 03:38:43;;;;;;;4.10;1.77;;;7.60;99.90;;;;;;5032543;28;20202;-73
2021/10/22 03:41:10;;;;;;;11.25;2.72;;;7.60;99.90;;;;;;5021089;28;20217;-74
2021/10/22 03:43:38;;;;;;;3.90;1.83;;;7.70;99.90;;;;;;5026489;28;20232;-75
2021/10/22 03:46:05;;;;;;;4.03;1.42;;;7.70;99.90;;;;;;5023082;28;20537;-76
2021/10/22 03:48:32;;;;;;;5.50;2.25;;;7.70;99.90;;;;;;5027237;28;20597;-76
2021/10/22 03:50:59;;;;;;;8.13;1.58;;;7.60;99.90;;;;;;5023473;28;20213;-75
2021/10/22 03:53:26;;;;;;;4.63;2.28;;;7.60;99.90;;;;;;5027717;28;20223;-76
2021/10/22 03:55:55;;;;;;;10.95;2.83;;;7.70;99.90;;;;;;5030543;28;20215;-73
2021/10/22 03:58:22;;;;;;;7.18;1.98;;;7.70;99.90;;;;;;5023010;28;20210;-73
2021/10/22 04:00:49;;;;;;;7.30;2.60;;;7.70;99.90;;;;;;5017458;28;20307;-76
2021/10/22 04:03:17;;;;;;;5.20;1.63;;;7.70;99.90;;;;;;5022534;28;20229;-74
2021/10/22 04:05:44;;;;;;;5.90;2.30;;;7.70;99.90;;;;;;5023395;28;20203;-75
2021/10/22 04:08:12;;;;;;;6.55;1.65;;;7.80;99.90;;;;;;5022317;28;20220;-75
2021/10/22 04:10:41;;;;;;;6.93;2.30;;;7.80;99.90;;;;;;5031460;28;20207;-74
2021/10/22 04:13:11;;;;;;;9.23;2.58;;;7.80;99.90;;;;;;5032051;28;20226;-76
2021/10/22 04:15:38;;;;;;;5.05;1.55;;;7.90;99.90;;;;;;5030983;28;20199;-75
2021/10/22 04:18:05;;;;;;;5.28;2.40;;;7.90;99.90;;;;;;5021947;28;20207;-74
2021/10/22 04:20:33;;;;;;;7.13;1.80;;;7.90;99.90;;;;;;5028581;28;20286;-76
2021/10/22 04:23:00;;;;;;;9.15;2.03;;;8.00;99.90;;;;;;5035864;28;20242;-76
2021/10/22 04:25:28;;;;;;;18.17;2.33;;;8.10;99.90;;;;;;5033958;28;20203;-73
2021/10/22 04:27:55;;;;;;;4.43;1.55;;;8.10;99.90;;;;;;5034418;28;20225;-74
2021/10/22 04:30:27;;;;;;;12.50;2.05;;;8.10;99.90;;;;;;5029606;28;20215;-77
2021/10/22 04:32:54;;;;;;;5.57;1.58;;;8.10;99.90;;;;;;5033627;28;20230;-76
2021/10/22 04:35:21;;;;;;;6.15;2.60;;;8.20;99.90;;;;;;5026870;28;20196;-75
2021/10/22 04:38:00;;;;;;;5.10;2.47;;;8.20;99.90;;;;;;5031577;28;20214;-77
2021/10/22 04:40:31;;;;;;;14.98;3.80;;;8.20;99.90;;;;;;5020629;28;20615;-75
2021/10/22 04:43:01;;;;;;;8.70;2.28;;;8.20;99.90;;;;;;5032366;28;20262;-76
2021/10/22 04:45:31;;;;;;;5.10;1.70;;;8.20;99.90;;;;;;5027285;28;20207;-76
2021/10/22 04:48:00;;;;;;;3.20;1.58;;;8.30;99.90;;;;;;5027196;28;20236;-74
2021/10/22 04:50:28;;;;;;;5.10;2.03;;;8.30;99.90;;;;;;5031347;28;20231;-75
2021/10/22 04:52:57;;;;;;;6.85;2.30;;;8.30;99.90;;;;;;5033282;28;20255;-74
2021/10/22 04:55:25;;;;;;;7.97;2.67;;;8.30;99.90;;;;;;5032480;28;20622;-75
2021/10/22 04:57:54;;;;;;;11.57;3.13;;;8.30;99.90;;;;;;5022365;28;20200;-76
2021/10/22 05:00:22;;;;;;;7.30;2.30;;;8.40;99.90;;;;;;5026323;28;20208;-74
2021/10/22 05:02:50;;;;;;;8.98;2.00;;;8.50;99.90;;;;;;5022531;28;20228;-74
2021/10/22 05:05:17;;;;;;;6.85;2.13;;;8.50;99.90;;;;;;5024014;28;20215;-74
2021/10/22 05:07:46;;;;;;;6.25;1.90;;;8.50;99.90;;;;;;5028654;28;20582;-76
2021/10/22 05:10:13;;;;;;;5.70;2.17;;;8.50;99.90;;;;;;5025080;28;20211;-76
2021/10/22 05:12:40;;;;;;;5.50;1.77;;;8.50;99.90;;;;;;5028051;28;20232;-76
2021/10/22 05:15:09;;;;;;;8.13;2.30;;;8.50;99.90;;;;;;5030700;28;20204;-76
2021/10/22 05:17:37;;;;;;;19.35;3.92;;;8.50;99.90;;;;;;5020271;28;20659;-77
2021/10/22 05:20:08;;;;;;;13.73;2.47;;;8.50;99.90;;;;;;5032400;28;20207;-78
2021/10/22 05:22:38;;;;;;;5.00;1.95;;;8.40;99.90;;;;;;5018664;28;20234;-76
2021/10/22 05:25:06;;;;;;;7.07;2.60;;;8.40;99.90;;;;;;5019720;28;20212;-78
2021/10/22 05:27:33;;;;;;;11.40;2.65;;;8.40;99.90;;;;;;5026886;28;20666;-76
2021/10/22 05:30:00;;;;;;;11.05;2.38;;;8.40;99.90;;;;;;5031112;28;20222;-76
2021/10/22 05:32:29;;;;;;;8.88;2.00;;;8.40;99.90;;;;;;5024948;28;20238;-78
2021/10/22 05:34:56;;;;;;;8.20;3.03;;;8.40;99.90;;;;;;5031214;28;20217;-77
2021/10/22 05:37:25;;;;;;;8.10;2.28;;;8.40;99.90;;;;;;5029489;28;20209;-78
2021/10/22 05:39:52;;;;;;;5.55;2.05;;;8.40;99.90;;;;;;5030442;28;20670;-78
2021/10/22 05:42:19;;;;;;;17.17;2.67;;;8.40;99.90;;;;;;5030829;28;20227;-80
2021/10/22 05:44:46;;;;;;;7.97;1.88;;;8.40;99.90;;;;;;5023509;28;20294;-79
2021/10/22 05:47:15;;;;;;;5.25;2.75;;;8.40;99.90;;;;;;5031283;28;20204;-78
2021/10/22 05:49:43;;;;;;;7.10;1.95;;;8.50;99.90;;;;;;5023529;28;21067;-79
2021/10/22 05:52:11;;;;;;;8.00;2.25;;;8.40;99.90;;;;;;5023893;28;20720;-80
2021/10/22 05:54:40;;;;;;;7.38;2.10;;;8.40;99.90;;;;;;5023106;28;20211;-78
2021/10/22 05:57:08;;;;;;;4.32;1.88;;;8.40;99.90;;;;;;5018848;28;20210;-77
2021/10/22 05:59:36;;;;;;;8.77;2.10;;;8.50;99.90;;;;;;5022184;28;20227;-77
2021/10/22 06:02:03;;;;;;;11.43;2.70;;;8.60;99.90;;;;;;5032230;28;20650;-76
2021/10/22 06:04:30;;;;;;;8.65;1.95;;;8.60;99.90;;;;;;5032318;28;20207;-74
2021/10/22 06:06:58;;;;;;;7.53;1.63;;;8.50;99.90;;;;;;5033539;28;20204;-76
2021/10/22 06:09:25;;;;;;;9.75;2.28;;;8.50;99.90;;;;;;5030543;28;20262;-74
2021/10/22 06:11:53;;;;;;;8.65;2.90;;;8.50;99.90;;;;;;5022715;28;20232;-74
2021/10/22 06:14:21;;;;;;;3.60;2.10;;;8.50;99.90;;;;;;5032580;28;20276;-75
2021/10/22 06:16:48;;;;;;;10.25;2.13;;;8.60;99.90;;;;;;5031957;28;20663;-73
2021/10/22 06:19:23;;;;;;;8.15;3.30;;;8.50;99.90;;;;;;5032253;28;20236;-73
2021/10/22 06:24:31;;;;;;;9.82;2.05;;;8.50;99.90;;;;;;5027950;28;20209;-75
2021/10/22 06:27:00;;;;;;;5.03;1.85;;;8.50;99.90;;;;;;5025136;28;20204;-73
2021/10/22 06:29:27;;;;;;;6.53;1.92;;;8.50;99.90;;;;;;5030732;28;20230;-74
2021/10/22 06:31:54;;;;;;;16.67;2.92;;;8.50;99.90;;;;;;5030313;28;20231;-72
2021/10/22 06:34:23;;;;;;;9.52;2.08;;;8.50;99.90;;;;;;5026734;28;20208;-73
2021/10/22 06:36:51;;;;;;;4.00;1.70;;;8.50;99.90;;;;;;5026678;28;20215;-69
2021/10/22 06:39:18;;;;;;;6.60;2.00;;;8.50;99.90;;;;;;5028781;28;20193;-70
2021/10/22 06:41:45;;;;;;;5.47;1.75;;;8.50;99.90;;;;;;5029679;28;20255;-74
2021/10/22 06:44:17;;;;;;;6.30;2.10;;;8.60;99.90;;;;;;5029497;28;20200;-75
2021/10/22 06:46:45;;;;;;;8.65;2.00;;;8.70;99.90;;;;;;5026395;28;20210;-73
2021/10/22 06:49:13;;;;;;;6.53;2.40;;;8.70;99.90;;;;;;5029504;28;20277;-74
2021/10/22 06:51:40;;;;;;;9.50;2.03;;;8.70;99.90;;;;;;5022472;28;20224;-75
2021/10/22 06:54:09;;;;;;;5.82;1.70;;;8.80;99.90;;;;;;5024368;28;20207;-74
2021/10/22 06:56:36;;;;;;;6.22;2.15;;;8.80;99.90;;;;;;5019882;28;20246;-75
2021/10/22 06:59:04;;;;;;;10.85;2.33;;;8.80;99.90;;;;;;5015796;28;20207;-74
2021/10/22 07:01:32;;;;;;;8.25;2.08;;;8.80;99.90;;;;;;5023262;28;20211;-74
2021/10/22 07:04:00;;;;;;;5.60;1.88;;;8.90;99.90;;;;;;5026247;28;20218;-75
2021/10/22 07:09:12;;;;;;;6.40;2.25;;;9.70;99.90;;;;;;5023187;28;20223;-75
2021/10/22 07:11:39;;;;;;;7.28;2.38;;;9.90;99.90;;;;;;5031294;28;20302;-76
2021/10/22 07:14:08;;;;;;;8.18;2.22;;;9.80;99.90;;;;;;5028877;28;20227;-74
2021/10/22 07:16:39;;;;;;;9.98;4.18;;;9.60;99.90;;;;;;5023973;28;20205;-74
2021/10/22 07:19:07;;;;;;;7.13;2.58;;;9.40;99.90;;;;;;5027621;28;20571;-76
2021/10/22 07:21:38;;;;;;;8.82;2.15;;;9.40;99.90;;;;;;5034828;28;20662;-73
2021/10/22 07:24:13;;;;;;;5.95;2.60;;;9.80;99.90;;;;;;5025572;28;20675;-73
2021/10/22 07:26:40;;;;;;;7.03;2.25;;;10.00;99.90;;;;;;5004771;28;20271;-73
2021/10/22 07:29:07;;;;;;;8.07;3.00;;;10.00;99.90;;;;;;5028975;28;20231;-73
2021/10/22 07:31:36;;;;;;;7.28;1.75;;;9.90;99.90;;;;;;5028337;28;20208;-74
2021/10/22 07:34:03;;;;;;;10.25;2.60;;;9.60;99.90;;;;;;5024801;28;20208;-74
2021/10/22 07:36:31;;;;;;;4.55;2.13;;;9.50;99.90;;;;;;5021373;28;20196;-73
2021/10/22 07:38:58;;;;;;;11.90;2.20;;;9.30;99.90;;;;;;5017004;28;20197;-73
2021/10/22 07:43:54;;;;;;;8.95;2.38;;;9.30;99.90;;;;;;4990728;28;20650;-74
2021/10/22 07:46:21;;;;;;;6.57;1.90;;;9.30;99.90;;;;;;4989127;28;20205;-75
2021/10/22 07:48:50;;;;;;;10.13;2.25;;;9.90;99.90;;;;;;4985868;28;20696;-75
2021/10/22 07:51:17;;;;;;;6.90;2.70;;;10.20;99.90;;;;;;4988676;28;20348;-75
2021/10/22 07:53:44;;;;;;;9.02;2.28;;;10.60;99.90;;;;;;5010818;28;20579;-75
2021/10/22 07:56:11;;;;;;;8.00;2.50;;;11.20;99.90;;;;;;5006513;28;20211;-74
2021/10/22 07:58:39;;;;;;;4.43;2.10;;;11.80;99.90;;;;;;5015381;28;20277;-75
2021/10/22 08:01:06;;;;;;;7.70;1.98;;;11.40;99.90;;;;;;5015177;28;20339;-76
2021/10/22 08:03:34;;;;;;;6.80;2.50;;;11.00;99.90;;;;;;5019065;28;20236;-76
2021/10/22 08:06:03;;;;;;;8.82;2.50;;;10.70;99.90;;;;;;5004879;28;20233;-72
2021/10/22 08:08:31;;;;;;;6.45;2.35;;;10.40;99.90;;;;;;5007265;28;20224;-73
2021/10/22 08:10:58;;;;;;;3.38;1.85;;;10.20;99.90;;;;;;5001741;28;20622;-73
2021/10/22 08:13:25;;;;;;;5.53;2.10;;;10.10;99.90;;;;;;5006732;28;20221;-73
2021/10/22 08:15:52;;;;;;;11.82;3.13;;;10.30;99.90;;;;;;5009176;28;20548;-73
2021/10/22 08:18:20;;;;;;;9.13;3.53;;;10.40;99.90;;;;;;5012846;28;20210;-71
2021/10/22 08:20:53;;;;;;;4.22;1.95;;;10.30;99.90;;;;;;5014337;28;20203;-73
2021/10/22 08:23:22;;;;;;;5.72;2.15;;;10.20;99.90;;;;;;5011705;28;20221;-73
2021/10/22 08:25:49;;;;;;;5.95;2.08;;;10.10;99.90;;;;;;5013136;28;20215;-73
2021/10/22 08:28:17;;;;;;;6.85;2.45;;;10.10;99.90;;;;;;5006827;28;20201;-73
2021/10/22 08:30:45;;;;;;;6.43;2.42;;;10.00;99.90;;;;;;5013119;28;20603;-74
2021/10/22 08:33:12;;;;;;;5.60;2.45;;;9.90;99.90;;;;;;5012250;28;20329;-74
2021/10/22 08:35:40;;;;;;;8.23;2.75;;;9.80;99.90;;;;;;5001980;28;20217;-74
2021/10/22 08:38:09;;;;;;;10.48;3.20;;;9.80;99.90;;;;;;5008447;28;20580;-72
2021/10/22 08:40:38;;;;;;;16.88;2.78;;;9.80;99.90;;;;;;5009405;28;20220;-70
2021/10/22 08:43:06;;;;;;;15.25;3.30;;;9.80;99.90;;;;;;5005197;28;20236;-72
2021/10/22 08:45:34;;;;;;;7.15;2.40;;;9.90;99.90;;;;;;5004193;28;20201;-74
2021/10/22 08:48:03;;;;;;;8.30;2.70;;;10.00;99.90;;;;;;5007213;28;20215;-74
2021/10/22 08:50:31;;;;;;;6.30;2.33;;;10.00;99.90;;;;;;5014622;28;20221;-73
2021/10/22 08:52:58;;;;;;;6.40;2.63;;;9.90;99.90;;;;;;5014734;28;20233;-69
2021/10/22 08:55:26;;;;;;;5.90;2.40;;;9.90;99.90;;;;;;5006471;28;20289;-70
2021/10/22 08:57:54;;;;;;;7.13;2.58;;;9.70;99.90;;;;;;5009975;28;20200;-72
2021/10/22 09:00:25;;;;;;;11.88;2.95;;;9.70;99.90;;;;;;5005660;28;20280;-72
2021/10/22 09:02:53;;;;;;;5.45;2.70;;;9.70;99.90;;;;;;5012105;28;20232;-75
2021/10/22 09:05:23;;;;;;;8.38;2.15;;;9.80;99.90;;;;;;5005104;28;20624;-72
2021/10/22 09:07:52;;;;;;;6.60;2.35;;;9.80;99.90;;;;;;5013009;28;20587;-73
2021/10/22 09:10:21;;;;;;;13.27;2.97;;;9.90;99.90;;;;;;5013782;28;20231;-72
2021/10/22 09:12:51;;;;;;;10.15;2.88;;;9.90;99.90;;;;;;5006886;28;20240;-74
2021/10/22 09:15:23;;;;;;;5.88;3.22;;;9.90;99.90;;;;;;5015784;28;20197;-75
2021/10/22 09:17:50;;;;;;;6.85;2.10;;;10.00;99.90;;;;;;5013553;28;20255;-71
2021/10/22 09:20:18;;;;;;;4.45;2.05;;;10.20;99.90;;;;;;5015659;28;20536;-72
2021/10/22 09:22:53;;;;;;;9.57;1.90;;;10.40;99.90;;;;;;5012159;28;20229;-73
2021/10/22 09:25:23;;;;;;;9.68;2.60;;;10.50;99.90;;;;;;5007612;28;20200;-72
2021/10/22 09:27:54;;;;;;;10.50;2.50;;;10.70;99.90;;;;;;5006037;28;20205;-74
2021/10/22 09:30:38;;;;;;;11.65;2.72;;;10.80;99.90;;;;;;5001957;28;20247;-71
2021/10/22 09:33:07;;;;;;;7.65;1.98;;;10.90;99.90;;;;;;5006914;28;20241;-72
2021/10/22 09:35:38;;;;;;;6.95;2.28;;;10.80;99.90;;;;;;5007976;28;20289;-73
2021/10/22 09:38:18;;;;;;;4.70;1.50;;;10.60;99.90;;;;;;5013400;28;20665;-73
2021/10/22 09:40:48;;;;;;;11.63;2.38;;;10.40;99.90;;;;;;5011208;28;20197;-72
2021/10/22 09:43:19;;;;;;;5.43;2.50;;;10.30;99.90;;;;;;5005369;28;20747;-71
2021/10/22 09:45:48;;;;;;;5.18;2.40;;;10.30;99.90;;;;;;5004298;28;20276;-72
2021/10/22 09:48:25;;;;;;;7.97;2.85;;;10.20;99.90;;;;;;5010155;28;20731;-71
2021/10/22 09:50:54;;;;;;;8.77;2.92;;;10.20;99.90;;;;;;5014284;28;20224;-70
2021/10/22 09:53:27;;;;;;;4.40;2.80;;;10.20;99.90;;;;;;5016812;28;20592;-71
2021/10/22 09:56:07;;;;;;;7.68;2.45;;;10.10;99.90;;;;;;5014330;28;20197;-72
2021/10/22 09:58:34;;;;;;;11.45;2.65;;;10.00;99.90;;;;;;5015260;28;20646;-71
2021/10/22 10:01:13;;;;;;;5.22;2.58;;;10.00;99.90;;;;;;5006836;28;20631;-72
2021/10/22 10:03:44;;;;;;;7.53;2.75;;;10.00;99.90;;;;;;5007364;28;20216;-71
2021/10/22 10:06:12;;;;;;;12.00;2.70;;;9.90;99.90;;;;;;5013729;28;20233;-73
2021/10/22 10:08:41;;;;;;;8.30;2.40;;;9.90;99.90;;;;;;5003279;28;20209;-73
2021/10/22 10:11:10;;;;;;;12.63;3.38;;;9.90;99.90;;;;;;5010565;28;20687;-76
2021/10/22 10:13:37;;;;;;;16.83;2.95;;;9.90;99.90;;;;;;5001681;28;20228;-70
2021/10/22 10:16:07;;;;;;;5.40;2.42;;;9.90;99.90;;;;;;5004184;28;20201;-73
2021/10/22 10:18:42;;;;;;;7.35;4.18;;;9.90;99.90;;;;;;5011665;28;20196;-72
2021/10/22 10:21:13;;;;;;;3.17;2.28;;;9.90;99.90;;;;;;5009416;28;20678;-72
2021/10/22 10:23:43;;;;;;;8.93;2.33;;;9.80;99.90;;;;;;5006875;28;20533;-73
2021/10/22 10:26:26;;;;;;;11.32;2.88;;;9.80;99.90;;;;;;5008801;28;20210;-74
2021/10/22 10:28:54;;;;;;;10.27;3.28;;;9.70;99.90;;;;;;5003916;28;20213;-73
2021/10/22 10:31:35;;;;;;;16.70;5.00;;;9.80;99.90;;;;;;5006766;28;20221;-70
2021/10/22 10:34:43;;;;;;;5.90;3.55;;;9.70;99.90;;;;;;5001342;28;20288;-67
2021/10/22 10:37:35;;;;;;;8.48;4.07;;;9.70;99.90;;;;;;5007254;28;20651;-68
2021/10/22 10:40:14;;;;;;;8.25;4.05;;;9.70;99.90;;;;;;5012592;28;20292;-68
2021/10/22 10:42:44;;;;;;;9.57;3.30;;;9.70;99.90;;;;;;5007378;28;20730;-67
2021/10/22 10:45:38;;;;;;;6.38;2.83;;;9.70;99.90;;;;;;5009992;28;20198;-68
2021/10/22 10:48:07;;;;;;;9.80;3.00;;;9.70;99.90;;;;;;5025807;28;20208;-74
2021/10/22 10:50:43;;;;;;;8.20;2.10;;;9.70;99.90;;;;;;5020374;28;20224;-73
2021/10/22 10:53:11;;;;;;;5.85;2.38;;;9.70;99.90;;;;;;5010081;28;20216;-70
2021/10/22 10:55:42;;;;;;;5.22;2.83;;;9.60;99.90;;;;;;5007431;28;20644;-73
2021/10/22 10:58:21;;;;;;;4.40;1.40;;;9.60;99.90;;;;;;4999210;28;20204;-75
2021/10/22 11:00:51;;;;;;;5.18;1.52;;;9.60;99.90;;;;;;5009126;28;20200;-72
2021/10/22 11:03:21;;;;;;;13.15;1.50;;;9.60;99.90;;;;;;4998363;28;20236;-70
2021/10/22 11:06:11;;;;;;;4.22;1.90;;;9.60;99.90;;;;;;4994752;28;20216;-71
2021/10/22 11:08:52;;;;;;;3.30;1.60;;;9.50;99.90;;;;;;5003448;28;20215;-72
2021/10/22 11:11:40;;;;;;;4.50;1.58;;;9.50;99.90;;;;;;5012111;28;20327;-71
2021/10/22 11:14:18;;;;;;;2.53;2.08;;;9.50;99.90;;;;;;4990578;28;20662;-73
2021/10/22 11:16:48;;;;;;;2.35;1.38;;;9.50;99.90;;;;;;5013204;28;20207;-71
2021/10/22 11:19:21;;;;;;;2.95;1.38;;;9.60;99.90;;;;;;5009007;28;20640;-70
2021/10/22 11:21:51;;;;;;;2.97;1.45;;;9.70;99.90;;;;;;5015710;28;20235;-72
2021/10/22 11:24:20;;;;;;;1.65;1.15;;;9.80;99.90;;;;;;5011344;28;20671;-72
2021/10/22 11:26:58;;;;;;;1.88;1.20;;;9.80;99.90;;;;;;5009316;28;20651;-72
2021/10/22 11:29:25;;;;;;;2.42;1.92;;;9.90;99.90;;;;;;5007812;28;20292;-72
2021/10/22 11:31:56;;;;;;;2.58;1.00;;;9.80;99.90;;;;;;5013147;28;20221;-71
2021/10/22 11:34:26;;;;;;;3.08;1.55;;;9.80;99.90;;;;;;5005968;28;20208;-72
2021/10/22 11:37:03;;;;;;;4.80;2.45;;;9.80;99.90;;;;;;5011573;28;20240;-72
2021/10/22 11:39:34;;;;;;;2.88;1.73;;;9.70;99.90;;;;;;5010369;28;20223;-70
2021/10/22 11:42:10;;;;;;;2.03;1.13;;;9.60;99.90;;;;;;5001971;28;20236;-70
2021/10/22 11:44:38;;;;;;;6.53;1.90;;;9.70;99.90;;;;;;5013240;28;20204;-73
2021/10/22 11:47:09;;;;;;;4.82;1.70;;;9.90;99.90;;;;;;5011449;28;20288;-73
2021/10/22 11:49:37;;;;;;;7.85;1.50;;;10.00;99.90;;;;;;5012452;28;20203;-72
2021/10/22 11:52:08;;;;;;;4.50;1.70;;;10.10;99.90;;;;;;5006392;28;20221;-70
2021/10/22 11:54:37;;;;;;;7.25;2.40;;;10.20;99.90;;;;;;5005233;28;20447;-73
2021/10/22 11:57:06;;;;;;;6.07;2.30;;;10.30;99.90;;;;;;4999956;28;20198;-71
2021/10/22 11:59:34;;;;;;;3.47;1.25;;;10.50;99.90;;;;;;4999317;28;20209;-71
2021/10/22 12:02:07;;;;;;;2.42;1.40;;;10.60;99.90;;;;;;5009724;28;20222;-73
2021/10/22 12:04:35;;;;;;;8.18;2.17;;;10.50;99.90;;;;;;5005137;28;20233;-72
2021/10/22 12:07:07;;;;;;;4.20;1.20;;;10.40;99.90;;;;;;5006303;28;20216;-71
2021/10/22 12:09:37;;;;;;;4.78;2.60;;;10.40;99.90;;;;;;5009347;28;20204;-73
2021/10/22 12:12:10;;;;;;;8.18;1.40;;;10.50;99.90;;;;;;5013179;28;20221;-73
2021/10/22 12:14:43;;;;;;;6.35;1.05;;;10.50;99.90;;;;;;5006637;28;20239;-71
2021/10/22 12:17:14;;;;;;;9.88;2.10;;;10.60;99.90;;;;;;5011392;28;20215;-70
2021/10/22 12:19:43;;;;;;;4.22;1.40;;;10.70;99.90;;;;;;5015391;28;20660;-70
2021/10/22 12:22:13;;;;;;;4.85;1.25;;;11.00;99.90;;;;;;5009488;28;20289;-70
2021/10/22 12:24:49;;;;;;;2.53;1.20;;;11.10;99.90;;;;;;5002558;28;20246;-71
2021/10/22 12:27:17;;;;;;;7.30;1.80;;;11.30;99.90;;;;;;5001879;28;20709;-71
2021/10/22 12:30:00;;;;;;;5.57;1.95;;;11.30;99.90;;;;;;5013636;28;20215;-72
2021/10/22 12:32:37;;;;;;;5.07;2.85;;;11.30;99.90;;;;;;5010625;28;20223;-72
2021/10/22 12:35:07;;;;;;;10.13;2.25;;;11.30;99.90;;;;;;5003334;28;20264;-72
2021/10/22 12:37:38;;;;;;;4.93;1.48;;;11.40;99.90;;;;;;5004195;28;20196;-72
2021/10/22 12:40:24;;;;;;;2.95;1.45;;;11.40;99.90;;;;;;5008323;28;20232;-74
2021/10/22 12:43:26;;;;;;;8.02;2.55;;;11.50;99.90;;;;;;5005192;28;20438;-73
2021/10/22 12:45:56;;;;;;;13.70;2.78;;;11.60;99.90;;;;;;5006734;28;20689;-73
2021/10/22 12:48:26;;;;;;;4.53;1.65;;;11.60;99.90;;;;;;5014000;28;20207;-73
2021/10/22 12:50:54;;;;;;;7.40;1.80;;;11.70;99.90;;;;;;5018975;28;20226;-72
2021/10/22 12:53:32;;;;;;;3.78;1.50;;;11.80;99.90;;;;;;5014082;28;20225;-73
2021/10/22 12:56:11;;;;;;;3.05;1.20;;;12.00;99.90;;;;;;5006447;28;20221;-73
2021/10/22 12:58:39;;;;;;;4.05;1.23;;;12.20;99.90;;;;;;4998760;28;20204;-73
2021/10/22 13:01:13;;;;;;;5.53;1.73;;;12.20;99.90;;;;;;5000805;28;20242;-73
2021/10/22 13:03:42;;;;;;;7.43;1.60;;;12.10;99.90;;;;;;5001965;28;20228;-72
2021/10/22 13:06:18;;;;;;;3.97;1.45;;;12.00;99.90;;;;;;5002784;28;20273;-71
2021/10/22 13:08:59;;;;;;;5.95;2.60;;;11.90;99.90;;;;;;4991382;28;20288;-72
2021/10/22 13:11:41;;;;;;;5.50;1.80;;;11.90;99.90;;;;;;5005693;28;20354;-71
2021/10/22 13:22:22;;;;;;;3.35;1.52;;;11.80;99.90;;;;;;5007194;28;20231;-72